Time;durP1;ratioP1;P1;durP2;ratioP2;P2;SDS_P1;SDS_P2;PMS_P1;PMS_P2;Temp;Humidity;BMP_temperature;BMP_pressure;BME280_temperature;BME280_humidity;BME280_pressure;Samples;Min_cycle;Max_cycle;Signal;HPM_P1;HPM_P2
2022/01/01 00:02:44;;;;;;;4.28;1.70;;;21.10;72.80;;;;;;7874111;28;20193;-58
2022/01/01 00:06:29;;;;;;;5.65;1.63;;;21.10;72.90;;;;;;7874433;28;20647;-59
2022/01/01 00:10:15;;;;;;;2.92;1.48;;;21.00;72.90;;;;;;7873119;28;20556;-57
2022/01/01 00:14:00;;;;;;;6.63;1.67;;;21.00;72.90;;;;;;7873926;28;20208;-58
2022/01/01 00:17:46;;;;;;;2.47;1.80;;;21.00;72.90;;;;;;7872921;28;20219;-59
2022/01/01 00:21:31;;;;;;;2.22;1.60;;;21.00;72.80;;;;;;7873453;28;20236;-57
2022/01/01 00:25:17;;;;;;;7.97;1.70;;;21.00;72.80;;;;;;7873338;28;20174;-58
2022/01/01 00:29:03;;;;;;;3.88;1.75;;;20.90;72.80;;;;;;7872754;28;20542;-58
2022/01/01 00:32:49;;;;;;;3.03;1.80;;;20.90;72.80;;;;;;7873267;28;20239;-59
2022/01/01 00:36:34;;;;;;;4.57;1.83;;;20.90;72.80;;;;;;7872851;28;20248;-59
2022/01/01 00:40:20;;;;;;;1.83;1.63;;;20.90;72.90;;;;;;7872185;28;20717;-59
2022/01/01 00:44:06;;;;;;;7.22;1.92;;;20.80;72.80;;;;;;7873023;28;20180;-56
2022/01/01 00:47:51;;;;;;;3.60;2.15;;;20.80;72.70;;;;;;7871010;28;20184;-56
2022/01/01 00:51:36;;;;;;;3.97;1.77;;;20.80;72.70;;;;;;7872378;28;20259;-56
2022/01/01 00:55:22;;;;;;;3.80;1.80;;;20.80;72.80;;;;;;7872535;28;20730;-58
2022/01/01 00:59:07;;;;;;;4.00;2.13;;;20.80;72.90;;;;;;7871762;28;20186;-59
2022/01/01 01:02:53;;;;;;;6.40;2.00;;;20.80;73.70;;;;;;7872135;28;20193;-57
2022/01/01 01:06:38;;;;;;;3.42;2.30;;;20.80;72.80;;;;;;7872096;28;20186;-58
2022/01/01 01:10:24;;;;;;;2.72;1.90;;;20.80;73.70;;;;;;7871354;28;20200;-58
2022/01/01 01:14:18;;;;;;;4.07;2.10;;;20.70;72.80;;;;;;7871976;28;20842;-57
2022/01/01 01:18:04;;;;;;;5.10;2.58;;;20.70;72.80;;;;;;7871299;28;20205;-59
2022/01/01 01:21:51;;;;;;;3.53;2.00;;;20.70;72.80;;;;;;7871860;28;20204;-59
2022/01/01 01:25:40;;;;;;;3.72;2.20;;;20.70;72.80;;;;;;7871911;28;20220;-59
2022/01/01 01:29:26;;;;;;;4.68;2.13;;;20.70;72.80;;;;;;7870831;28;20246;-59
2022/01/01 01:33:12;;;;;;;2.25;2.05;;;20.60;72.80;;;;;;7869719;28;20201;-59
2022/01/01 01:36:57;;;;;;;2.97;2.00;;;20.70;72.80;;;;;;7871432;28;20197;-58
2022/01/01 01:40:43;;;;;;;3.97;2.58;;;20.60;72.80;;;;;;7870561;28;20194;-58
2022/01/01 01:44:32;;;;;;;2.70;2.30;;;20.60;72.80;;;;;;7871146;28;20180;-58
2022/01/01 01:48:18;;;;;;;4.43;2.20;;;20.60;72.80;;;;;;7870475;28;20185;-56
2022/01/01 01:52:03;;;;;;;3.65;2.35;;;20.60;72.80;;;;;;7870860;28;20678;-57
2022/01/01 01:55:49;;;;;;;4.75;2.45;;;20.50;72.80;;;;;;7870678;28;20197;-59
2022/01/01 01:59:35;;;;;;;3.15;2.13;;;20.60;72.80;;;;;;7869742;28;20178;-57
2022/01/01 02:03:20;;;;;;;2.75;2.30;;;20.50;72.80;;;;;;7870265;28;20284;-58
2022/01/01 02:07:07;;;;;;;3.30;2.30;;;20.60;72.80;;;;;;7870319;28;20177;-57
2022/01/01 02:10:53;;;;;;;3.97;2.13;;;20.50;72.80;;;;;;7869477;28;20651;-58
2022/01/01 02:15:05;;;;;;;2.97;2.03;;;20.50;72.80;;;;;;7870026;28;20177;-58
2022/01/01 02:18:54;;;;;;;2.58;2.10;;;20.50;72.80;;;;;;7869407;28;20252;-58
2022/01/01 02:22:47;;;;;;;3.20;2.38;;;20.50;72.80;;;;;;7869912;28;20201;-59
2022/01/01 02:26:34;;;;;;;3.42;2.33;;;20.50;72.80;;;;;;7869895;28;20272;-59
2022/01/01 02:30:20;;;;;;;5.47;2.20;;;20.50;72.80;;;;;;7868946;28;20728;-59
2022/01/01 02:34:07;;;;;;;3.67;2.17;;;20.40;72.80;;;;;;7869727;28;20257;-58
2022/01/01 02:37:52;;;;;;;3.00;2.15;;;20.40;72.80;;;;;;7868991;28;20299;-58
2022/01/01 02:41:38;;;;;;;3.33;1.90;;;20.40;72.80;;;;;;7869599;28;20200;-58
2022/01/01 02:45:23;;;;;;;4.63;1.90;;;20.40;72.90;;;;;;7869442;28;20185;-58
2022/01/01 02:49:09;;;;;;;2.30;1.98;;;20.40;72.90;;;;;;7868703;28;20181;-58
2022/01/01 02:52:54;;;;;;;2.53;2.30;;;20.40;72.90;;;;;;7869203;28;20213;-57
2022/01/01 02:56:40;;;;;;;2.50;2.30;;;20.40;72.90;;;;;;7869297;28;20208;-59
2022/01/01 03:00:26;;;;;;;3.65;2.40;;;20.40;72.80;;;;;;7868394;28;20178;-59
2022/01/01 03:04:11;;;;;;;2.70;2.05;;;20.30;72.80;;;;;;7869333;28;20643;-57
2022/01/01 03:07:58;;;;;;;2.22;1.80;;;20.30;72.80;;;;;;7868476;28;20235;-58
2022/01/01 03:11:43;;;;;;;3.80;2.00;;;20.30;72.80;;;;;;7868415;28;20197;-58
2022/01/01 03:15:28;;;;;;;2.97;2.15;;;20.30;72.90;;;;;;7868972;28;20287;-58
2022/01/01 03:19:14;;;;;;;2.35;1.92;;;20.30;72.90;;;;;;7868179;28;20204;-58
2022/01/01 03:22:59;;;;;;;3.22;2.13;;;20.30;72.90;;;;;;7868905;28;20283;-59
2022/01/01 03:26:45;;;;;;;2.25;2.00;;;20.30;72.80;;;;;;7868828;28;20185;-58
2022/01/01 03:30:30;;;;;;;2.88;2.03;;;20.30;72.80;;;;;;7868110;28;20640;-58
2022/01/01 03:34:17;;;;;;;3.88;2.03;;;20.30;72.80;;;;;;7869023;28;20188;-59
2022/01/01 03:38:03;;;;;;;2.38;1.90;;;20.20;72.80;;;;;;7868549;28;20291;-59
2022/01/01 03:41:49;;;;;;;2.33;1.83;;;20.20;72.80;;;;;;7869344;28;20199;-59
2022/01/01 03:45:36;;;;;;;3.97;2.10;;;20.20;72.80;;;;;;7869118;28;20185;-58
2022/01/01 03:49:22;;;;;;;3.20;2.42;;;20.20;72.90;;;;;;7868343;28;20641;-58
2022/01/01 03:53:07;;;;;;;2.58;2.05;;;20.20;72.80;;;;;;7868696;28;20209;-57
2022/01/01 03:56:53;;;;;;;1.83;1.70;;;20.20;72.80;;;;;;7868411;28;20235;-58
2022/01/01 04:00:40;;;;;;;2.53;2.00;;;20.20;72.80;;;;;;7867623;28;20779;-57
2022/01/01 04:04:26;;;;;;;3.08;1.70;;;20.20;72.80;;;;;;7868326;28;20631;-56
2022/01/01 04:08:12;;;;;;;2.30;2.10;;;20.20;72.80;;;;;;7867688;28;20178;-56
2022/01/01 04:11:58;;;;;;;2.15;1.75;;;20.10;72.80;;;;;;7868070;28;20202;-57
2022/01/01 04:15:43;;;;;;;2.00;1.80;;;20.10;72.80;;;;;;7867922;28;20678;-56
2022/01/01 04:19:39;;;;;;;2.25;1.85;;;20.10;72.80;;;;;;7867302;28;20303;-57
2022/01/01 04:23:24;;;;;;;2.25;2.00;;;20.10;72.80;;;;;;7868954;28;20647;-56
2022/01/01 04:27:10;;;;;;;3.72;2.20;;;20.10;72.80;;;;;;7873419;28;20180;-58
2022/01/01 04:30:55;;;;;;;2.13;1.83;;;20.10;72.80;;;;;;7872499;28;20201;-57
2022/01/01 04:34:41;;;;;;;3.50;2.17;;;20.10;72.80;;;;;;7873305;28;20181;-56
2022/01/01 04:38:44;;;;;;;2.97;2.20;;;20.10;72.90;;;;;;7872260;28;20174;-56
2022/01/01 04:42:30;;;;;;;2.97;2.10;;;20.10;72.90;;;;;;7872820;28;20258;-57
2022/01/01 04:46:16;;;;;;;2.72;1.90;;;20.00;72.90;;;;;;7873192;28;20264;-57
2022/01/01 04:50:03;;;;;;;8.30;2.50;;;20.00;72.90;;;;;;7872025;28;20789;-59
2022/01/01 04:53:49;;;;;;;9.13;2.00;;;20.00;72.90;;;;;;7872405;28;20254;-57
2022/01/01 04:57:35;;;;;;;5.88;2.47;;;20.00;72.80;;;;;;7871817;28;20281;-57
2022/01/01 05:01:20;;;;;;;5.57;2.42;;;20.00;72.80;;;;;;7872262;28;20193;-56
2022/01/01 05:05:06;;;;;;;5.75;1.98;;;20.00;72.90;;;;;;7872296;28;20230;-59
2022/01/01 05:08:52;;;;;;;4.70;2.00;;;20.00;72.90;;;;;;7871542;28;20177;-58
2022/01/01 05:12:37;;;;;;;1.90;1.70;;;20.00;72.80;;;;;;7872096;28;20201;-58
2022/01/01 05:16:23;;;;;;;4.80;2.22;;;20.00;72.90;;;;;;7871942;28;20205;-58
2022/01/01 05:20:09;;;;;;;3.20;1.95;;;19.90;73.80;;;;;;7871334;28;20177;-59
2022/01/01 05:23:55;;;;;;;3.58;2.20;;;19.90;72.90;;;;;;7871702;28;20347;-58
2022/01/01 05:27:40;;;;;;;2.50;1.90;;;19.90;72.90;;;;;;7870923;28;20235;-57
2022/01/01 05:31:26;;;;;;;2.53;1.80;;;19.90;73.00;;;;;;7871546;28;20708;-58
2022/01/01 05:35:12;;;;;;;4.72;2.20;;;19.90;72.90;;;;;;7871044;28;20293;-58
2022/01/01 05:38:57;;;;;;;5.20;1.90;;;19.90;72.90;;;;;;7870617;28;20181;-58
2022/01/01 05:42:43;;;;;;;2.22;1.83;;;19.90;72.90;;;;;;7871152;28;20617;-57
2022/01/01 05:46:30;;;;;;;3.35;2.30;;;19.90;73.00;;;;;;7871134;28;20186;-57
2022/01/01 05:50:17;;;;;;;3.33;2.22;;;19.90;73.00;;;;;;7870124;28;20181;-58
2022/01/01 05:54:02;;;;;;;3.03;2.13;;;19.80;73.00;;;;;;7871013;28;20186;-58
2022/01/01 05:57:48;;;;;;;1.65;1.55;;;19.80;72.90;;;;;;7869986;28;20205;-58
2022/01/01 06:01:33;;;;;;;1.60;1.50;;;19.90;73.00;;;;;;7870728;28;20236;-57
2022/01/01 06:05:19;;;;;;;2.58;1.70;;;19.80;72.90;;;;;;7870990;28;20256;-58
2022/01/01 06:09:04;;;;;;;3.80;1.70;;;19.80;72.90;;;;;;7869654;28;20174;-59
2022/01/01 06:12:50;;;;;;;2.05;1.70;;;19.80;72.90;;;;;;7870255;28;20200;-58
2022/01/01 06:16:36;;;;;;;2.13;1.92;;;19.80;72.90;;;;;;7870197;28;20212;-58
2022/01/01 06:20:21;;;;;;;3.33;1.70;;;19.80;72.90;;;;;;7869250;28;20177;-57
2022/01/01 06:24:07;;;;;;;2.38;1.95;;;19.80;72.90;;;;;;7869805;28;20169;-59
2022/01/01 06:27:52;;;;;;;2.05;1.70;;;19.80;72.90;;;;;;7869097;28;20959;-59
2022/01/01 06:31:38;;;;;;;3.03;1.63;;;19.80;72.90;;;;;;7869653;28;20584;-60
2022/01/01 06:35:23;;;;;;;2.00;1.80;;;19.80;72.90;;;;;;7869784;28;20205;-59
2022/01/01 06:39:09;;;;;;;1.85;1.50;;;19.80;72.90;;;;;;7868899;28;20546;-59
2022/01/01 06:42:55;;;;;;;3.13;1.70;;;19.70;72.90;;;;;;7869465;28;20563;-58
2022/01/01 06:46:40;;;;;;;1.90;1.65;;;19.70;72.90;;;;;;7868671;28;20181;-59
2022/01/01 06:50:26;;;;;;;2.55;1.60;;;19.80;73.00;;;;;;7868451;28;20184;-59
2022/01/01 06:54:11;;;;;;;2.00;1.80;;;19.70;73.00;;;;;;7869240;28;20189;-59
2022/01/01 06:57:57;;;;;;;5.55;1.85;;;19.70;73.00;;;;;;7868492;28;20571;-59
2022/01/01 07:01:42;;;;;;;1.80;1.70;;;19.70;73.00;;;;;;7869405;28;20706;-58
2022/01/01 07:05:28;;;;;;;2.72;1.80;;;19.70;73.00;;;;;;7869117;28;20178;-58
2022/01/01 07:09:14;;;;;;;7.40;1.70;;;19.70;73.00;;;;;;7868454;28;20192;-58
2022/01/01 07:13:00;;;;;;;3.30;1.63;;;19.70;73.00;;;;;;7845491;28;20202;-59
2022/01/01 07:16:45;;;;;;;4.45;1.80;;;19.60;73.00;;;;;;7868718;28;20247;-58
2022/01/01 07:20:31;;;;;;;1.98;1.60;;;19.70;73.00;;;;;;7868086;28;20196;-55
2022/01/01 07:24:16;;;;;;;5.88;1.70;;;19.70;73.00;;;;;;7868773;28;20216;-58
2022/01/01 07:28:02;;;;;;;2.20;1.80;;;19.70;73.00;;;;;;7868026;28;20227;-59
2022/01/01 07:31:47;;;;;;;2.58;1.70;;;19.60;73.10;;;;;;7868586;28;20279;-59
2022/01/01 07:35:36;;;;;;;1.67;1.40;;;19.60;73.00;;;;;;7847576;28;20682;-57
2022/01/01 07:39:22;;;;;;;3.92;1.52;;;19.60;73.00;;;;;;7837189;28;20553;-59
2022/01/01 07:43:12;;;;;;;2.83;1.45;;;19.60;73.00;;;;;;7855052;28;20224;-59
2022/01/01 07:46:57;;;;;;;1.63;1.50;;;19.60;73.10;;;;;;7868731;28;20188;-58
2022/01/01 07:50:43;;;;;;;1.98;1.60;;;19.60;73.10;;;;;;7899528;28;20208;-57
2022/01/01 07:54:28;;;;;;;2.22;1.75;;;19.60;73.10;;;;;;7870643;28;20188;-58
2022/01/01 07:58:14;;;;;;;3.90;1.70;;;19.60;73.10;;;;;;7870447;28;20357;-58
2022/01/01 08:01:59;;;;;;;3.33;1.38;;;19.50;73.00;;;;;;7874204;28;20224;-58
2022/01/01 08:05:45;;;;;;;17.70;2.00;;;19.60;73.20;;;;;;7874365;28;20178;-57
2022/01/01 08:09:30;;;;;;;13.10;1.73;;;19.60;73.40;;;;;;7873460;28;20182;-58
2022/01/01 08:13:25;;;;;;;14.30;2.22;;;19.50;73.50;;;;;;7873952;28;20231;-58
2022/01/01 08:17:11;;;;;;;33.40;3.15;;;19.50;73.60;;;;;;7873837;28;20229;-57
2022/01/01 08:20:56;;;;;;;14.90;2.35;;;19.40;73.70;;;;;;7872929;28;20196;-58
2022/01/01 08:24:42;;;;;;;13.32;2.30;;;19.40;73.70;;;;;;7873423;28;20177;-58
2022/01/01 08:28:27;;;;;;;18.77;2.00;;;19.40;73.70;;;;;;7872768;28;20246;-59
2022/01/01 08:32:13;;;;;;;10.15;1.90;;;19.40;73.50;;;;;;7873088;28;20197;-59
2022/01/01 08:35:58;;;;;;;6.63;1.60;;;19.40;73.50;;;;;;7873079;28;20274;-58
2022/01/01 08:39:44;;;;;;;13.65;1.80;;;19.40;73.40;;;;;;7872434;28;20170;-58
2022/01/01 08:43:29;;;;;;;8.40;1.55;;;19.40;73.40;;;;;;7872938;28;20621;-56
2022/01/01 08:47:15;;;;;;;5.88;2.30;;;19.40;73.50;;;;;;7872818;28;20264;-59
2022/01/01 08:51:15;;;;;;;11.23;1.80;;;19.40;73.40;;;;;;7871901;28;20227;-57
2022/01/01 08:55:00;;;;;;;8.43;2.47;;;19.40;73.60;;;;;;7868698;28;20188;-58
2022/01/01 08:58:46;;;;;;;15.15;2.22;;;19.40;73.70;;;;;;7871638;28;20170;-58
2022/01/01 09:02:32;;;;;;;12.23;1.80;;;19.40;73.40;;;;;;7872176;28;20185;-59
2022/01/01 09:06:17;;;;;;;10.75;2.00;;;19.40;73.60;;;;;;7871986;28;20190;-58
2022/01/01 09:10:04;;;;;;;9.15;2.05;;;19.40;73.70;;;;;;7869378;28;20173;-58
2022/01/01 09:13:50;;;;;;;15.25;1.88;;;19.40;73.70;;;;;;7871537;28;20342;-58
2022/01/01 09:17:35;;;;;;;8.00;1.95;;;19.50;73.80;;;;;;7871131;28;20201;-58
2022/01/01 09:21:21;;;;;;;20.65;2.50;;;19.50;73.80;;;;;;7871682;28;20204;-59
2022/01/01 09:25:07;;;;;;;12.88;2.00;;;19.50;73.70;;;;;;7871610;28;20177;-58
2022/01/01 09:28:52;;;;;;;5.65;1.60;;;19.40;73.70;;;;;;7870851;28;20165;-59
2022/01/01 09:32:38;;;;;;;12.52;1.80;;;19.40;73.70;;;;;;7871412;28;20212;-58
2022/01/01 09:36:23;;;;;;;10.10;2.10;;;19.40;73.70;;;;;;7871295;28;20258;-58
2022/01/01 09:40:09;;;;;;;11.85;2.10;;;19.40;73.70;;;;;;7870051;28;20690;-59
2022/01/01 09:43:56;;;;;;;13.30;1.83;;;19.40;73.50;;;;;;7871119;28;20228;-59
2022/01/01 09:47:42;;;;;;;8.48;1.70;;;19.40;73.80;;;;;;7870319;28;20739;-60
2022/01/01 09:51:28;;;;;;;7.20;1.52;;;19.40;73.70;;;;;;7871169;28;20612;-59
2022/01/01 09:55:13;;;;;;;7.43;1.67;;;19.40;73.70;;;;;;7870996;28;20193;-58
2022/01/01 09:58:59;;;;;;;11.27;1.70;;;19.40;73.60;;;;;;7870116;28;20170;-59
2022/01/01 10:02:44;;;;;;;4.70;1.33;;;19.30;73.60;;;;;;7870357;28;20208;-59
2022/01/01 10:06:31;;;;;;;14.43;2.20;;;19.30;73.70;;;;;;7870565;28;20223;-59
2022/01/01 10:10:25;;;;;;;9.23;1.83;;;19.30;73.60;;;;;;7869878;28;20196;-58
2022/01/01 10:14:13;;;;;;;9.07;1.90;;;19.30;73.60;;;;;;7870440;28;20197;-58
2022/01/01 10:18:06;;;;;;;12.82;1.55;;;19.30;73.60;;;;;;7869260;28;20568;-59
2022/01/01 10:21:55;;;;;;;10.55;2.03;;;19.30;73.50;;;;;;7869920;28;20221;-58
2022/01/01 10:29:56;;;;;;;6.45;1.40;;;19.30;73.50;;;;;;7860591;28;20220;-59
2022/01/01 10:33:46;;;;;;;10.23;1.90;;;19.20;73.50;;;;;;7869015;28;20201;-57
2022/01/01 10:37:32;;;;;;;7.28;1.90;;;19.30;73.50;;;;;;7862815;28;20262;-58
2022/01/01 10:41:18;;;;;;;9.82;2.03;;;19.30;73.50;;;;;;7869292;28;20189;-59
2022/01/01 10:45:04;;;;;;;4.80;1.90;;;19.20;73.40;;;;;;7869442;28;20653;-58
2022/01/01 10:49:09;;;;;;;5.60;1.55;;;19.30;73.50;;;;;;7868740;28;20275;-57
2022/01/01 10:53:09;;;;;;;5.80;1.80;;;19.20;73.40;;;;;;7869009;28;20274;-58
2022/01/01 10:56:55;;;;;;;9.88;2.28;;;19.20;73.50;;;;;;7869349;28;20284;-58
2022/01/01 11:00:41;;;;;;;3.60;1.70;;;19.20;73.60;;;;;;7868478;28;20250;-58
2022/01/01 11:04:26;;;;;;;6.47;1.40;;;19.20;73.50;;;;;;7869191;28;20177;-60
2022/01/01 11:08:13;;;;;;;4.60;1.60;;;19.20;73.50;;;;;;7868236;28;20188;-58
2022/01/01 11:12:03;;;;;;;6.05;1.58;;;19.20;73.50;;;;;;7868941;28;20270;-59
2022/01/01 11:15:49;;;;;;;9.93;1.98;;;19.20;73.60;;;;;;7868917;28;20229;-58
2022/01/01 11:19:35;;;;;;;8.10;2.33;;;19.20;73.60;;;;;;7868314;28;20563;-59
2022/01/01 11:23:21;;;;;;;5.00;1.75;;;19.10;73.50;;;;;;7868879;28;20341;-59
2022/01/01 11:27:07;;;;;;;10.38;2.15;;;19.10;73.50;;;;;;7868971;28;20634;-57
2022/01/01 11:31:15;;;;;;;6.57;1.77;;;19.10;73.40;;;;;;7868481;28;20698;-58
2022/01/01 11:35:02;;;;;;;5.13;1.73;;;19.10;73.40;;;;;;7874635;28;20183;-58
2022/01/01 11:38:48;;;;;;;7.35;1.60;;;19.10;73.30;;;;;;7874300;28;20180;-59
2022/01/01 11:42:44;;;;;;;5.22;1.88;;;19.10;73.30;;;;;;7874837;28;20561;-58
2022/01/01 11:46:30;;;;;;;8.48;1.60;;;19.20;73.80;;;;;;7874923;28;20177;-59
2022/01/01 11:50:42;;;;;;;6.40;1.90;;;19.20;73.50;;;;;;7873761;28;20517;-59
2022/01/01 11:54:31;;;;;;;10.25;2.05;;;19.10;73.40;;;;;;7867082;28;20189;-59
2022/01/01 11:58:17;;;;;;;6.97;1.85;;;19.10;73.50;;;;;;7851467;28;20606;-58
2022/01/01 12:02:20;;;;;;;9.80;2.08;;;19.10;73.50;;;;;;7874048;28;20267;-57
2022/01/01 12:06:06;;;;;;;7.53;2.28;;;19.10;73.60;;;;;;7858919;28;20272;-59
2022/01/01 12:10:03;;;;;;;6.72;2.20;;;19.00;73.60;;;;;;7873248;28;20185;-58
2022/01/01 12:13:56;;;;;;;5.60;1.90;;;19.00;73.70;;;;;;7873819;28;20609;-58
2022/01/01 12:17:48;;;;;;;6.32;1.60;;;19.10;74.50;;;;;;7855022;28;20300;-59
2022/01/01 12:21:40;;;;;;;8.38;2.75;;;19.10;73.50;;;;;;7849678;28;20259;-58
2022/01/01 12:25:31;;;;;;;8.05;1.90;;;19.00;73.70;;;;;;7854165;28;20197;-59
2022/01/01 12:29:22;;;;;;;7.47;2.13;;;19.00;73.60;;;;;;7872681;28;20585;-58
2022/01/01 12:33:10;;;;;;;10.13;2.30;;;19.00;73.50;;;;;;7873431;28;20197;-59
2022/01/01 12:36:56;;;;;;;11.25;2.22;;;19.00;73.60;;;;;;7873064;28;20224;-57
2022/01/01 12:41:11;;;;;;;8.95;2.28;;;19.10;73.50;;;;;;7871280;28;20212;-58
2022/01/01 12:45:04;;;;;;;4.88;1.90;;;19.00;73.60;;;;;;7845033;28;20181;-59
2022/01/01 12:48:49;;;;;;;11.90;2.20;;;19.00;73.60;;;;;;7876419;28;20191;-59
2022/01/01 12:52:35;;;;;;;9.93;1.80;;;19.00;73.60;;;;;;7903937;28;20690;-58
2022/01/01 12:56:21;;;;;;;11.30;2.08;;;19.00;73.70;;;;;;7904167;28;20238;-58
2022/01/01 13:00:21;;;;;;;10.02;2.05;;;19.00;73.90;;;;;;7903229;28;20187;-59
2022/01/01 13:04:14;;;;;;;13.30;3.53;;;19.00;73.90;;;;;;7893410;28;20178;-58
2022/01/01 13:08:03;;;;;;;12.50;3.30;;;19.00;74.00;;;;;;7859246;28;20181;-59
2022/01/01 13:11:57;;;;;;;17.30;3.03;;;19.00;73.80;;;;;;7872394;28;20262;-59
2022/01/01 13:15:42;;;;;;;12.73;3.33;;;19.00;73.80;;;;;;7872238;28;20213;-59
2022/01/01 13:19:28;;;;;;;10.43;3.38;;;19.00;73.70;;;;;;7871303;28;20239;-58
2022/01/01 13:23:17;;;;;;;16.10;2.55;;;19.00;73.70;;;;;;7871900;28;20553;-59
2022/01/01 13:27:03;;;;;;;11.20;2.90;;;19.20;73.60;;;;;;7871971;28;20180;-58
2022/01/01 13:30:48;;;;;;;9.55;2.92;;;19.30;73.40;;;;;;7871012;28;20201;-58
2022/01/01 13:34:35;;;;;;;12.80;2.72;;;19.40;73.10;;;;;;7871577;28;20226;-57
2022/01/01 13:38:22;;;;;;;9.82;2.60;;;19.60;72.90;;;;;;7870996;28;20222;-57
2022/01/01 13:42:10;;;;;;;13.98;2.60;;;19.70;72.70;;;;;;7871555;28;20200;-56
2022/01/01 13:46:08;;;;;;;10.75;2.35;;;19.90;72.70;;;;;;7871407;28;20738;-58
2022/01/01 13:50:00;;;;;;;9.88;2.53;;;20.00;72.50;;;;;;7870402;28;20201;-58
2022/01/01 13:53:47;;;;;;;15.05;2.13;;;20.10;72.40;;;;;;7870833;28;20227;-59
2022/01/01 13:57:37;;;;;;;10.35;2.65;;;20.30;72.40;;;;;;7869843;28;20670;-57
2022/01/01 14:01:24;;;;;;;15.32;2.05;;;20.40;72.30;;;;;;7870673;28;20653;-57
2022/01/01 14:05:10;;;;;;;11.65;2.35;;;20.50;72.20;;;;;;7870521;28;20199;-58
2022/01/01 14:09:06;;;;;;;11.02;2.47;;;20.60;72.20;;;;;;7869787;28;20201;-58
2022/01/01 14:12:51;;;;;;;8.43;2.50;;;20.70;72.10;;;;;;7870234;28;20658;-58
2022/01/01 14:16:49;;;;;;;10.73;1.88;;;20.80;72.10;;;;;;7870223;28;20578;-58
2022/01/01 14:20:52;;;;;;;7.55;2.58;;;20.80;72.00;;;;;;7869402;28;20230;-58
2022/01/01 14:24:52;;;;;;;10.25;2.25;;;20.90;71.90;;;;;;7869846;28;20579;-59
2022/01/01 14:28:37;;;;;;;9.82;2.60;;;20.90;71.90;;;;;;7869144;28;20173;-59
2022/01/01 14:32:23;;;;;;;7.35;2.20;;;21.00;72.10;;;;;;7869706;28;20673;-59
2022/01/01 14:36:11;;;;;;;7.60;2.10;;;21.00;72.00;;;;;;7869622;28;20200;-59
2022/01/01 14:39:56;;;;;;;4.00;1.73;;;21.00;72.00;;;;;;7863939;28;20181;-58
2022/01/01 14:43:42;;;;;;;7.75;2.00;;;21.00;71.80;;;;;;7838470;28;20247;-58
2022/01/01 14:47:32;;;;;;;5.45;2.20;;;21.00;72.10;;;;;;7837878;28;20240;-57
2022/01/01 14:51:48;;;;;;;7.35;2.40;;;21.00;72.00;;;;;;7838180;28;20213;-58
2022/01/01 14:55:52;;;;;;;4.22;1.75;;;21.00;72.10;;;;;;7838231;28;20601;-60
2022/01/01 14:59:43;;;;;;;5.05;2.17;;;21.10;72.00;;;;;;7837535;28;20182;-58
2022/01/01 15:03:28;;;;;;;8.55;2.20;;;21.00;72.10;;;;;;7838003;28;20189;-59
2022/01/01 15:07:14;;;;;;;10.25;2.22;;;21.00;72.30;;;;;;7837443;28;20669;-59
2022/01/01 15:11:02;;;;;;;35.30;2.42;;;21.00;72.40;;;;;;7837282;28;20694;-59
2022/01/01 15:14:48;;;;;;;43.17;3.00;;;21.00;72.40;;;;;;7838090;28;20200;-58
2022/01/01 15:18:35;;;;;;;29.80;2.70;;;21.10;72.50;;;;;;7837421;28;20399;-59
2022/01/01 15:22:46;;;;;;;18.92;2.20;;;21.20;72.30;;;;;;7838265;28;20219;-59
2022/01/01 15:26:32;;;;;;;13.90;3.42;;;21.20;72.10;;;;;;7838001;28;20174;-59
2022/01/01 15:34:10;;;;;;;11.30;3.15;;;21.30;71.80;;;;;;7837755;28;20178;-58
2022/01/01 15:45:39;;;;;;;9.95;2.30;;;21.50;71.70;;;;;;7837429;28;20170;-58
2022/01/01 15:49:26;;;;;;;12.10;1.90;;;21.50;71.60;;;;;;7836748;28;20178;-57
2022/01/01 15:53:12;;;;;;;8.88;2.45;;;21.50;71.70;;;;;;7837243;28;20213;-58
2022/01/01 15:57:14;;;;;;;4.18;1.75;;;21.50;71.70;;;;;;7837335;28;20209;-57
2022/01/01 16:01:09;;;;;;;10.82;2.03;;;21.50;71.90;;;;;;7842653;28;20201;-58
2022/01/01 16:05:12;;;;;;;5.90;2.00;;;21.50;72.00;;;;;;7868237;28;20669;-57
2022/01/01 16:09:01;;;;;;;8.77;2.67;;;21.50;71.90;;;;;;7867653;28;20197;-58
2022/01/01 16:12:52;;;;;;;6.30;2.65;;;21.50;72.00;;;;;;7868062;28;20528;-55
2022/01/01 16:16:43;;;;;;;5.15;2.65;;;21.50;72.10;;;;;;7868210;28;20198;-58
2022/01/01 16:20:29;;;;;;;7.80;3.00;;;21.50;72.20;;;;;;7871441;28;20585;-59
2022/01/01 16:24:14;;;;;;;5.85;2.72;;;21.60;72.30;;;;;;7873841;28;20212;-57
2022/01/01 16:28:00;;;;;;;8.60;2.90;;;21.60;72.10;;;;;;7872792;28;20177;-58
2022/01/01 16:31:46;;;;;;;8.68;3.42;;;21.60;72.10;;;;;;7873203;28;20209;-57
2022/01/01 16:35:33;;;;;;;13.95;3.85;;;21.60;71.90;;;;;;7873323;28;20197;-58
2022/01/01 16:39:21;;;;;;;7.07;2.95;;;21.60;71.80;;;;;;7872605;28;20176;-57
2022/01/01 16:43:11;;;;;;;5.20;2.90;;;21.60;71.80;;;;;;7873067;28;20189;-59
2022/01/01 16:47:07;;;;;;;6.75;3.17;;;21.60;71.80;;;;;;7873251;28;20189;-58
2022/01/01 16:50:56;;;;;;;5.57;3.22;;;21.60;71.60;;;;;;7872446;28;20215;-59
2022/01/01 16:54:45;;;;;;;10.60;3.92;;;21.60;71.50;;;;;;7873196;28;20554;-57
2022/01/01 16:58:30;;;;;;;5.45;3.17;;;21.60;71.40;;;;;;7872379;28;20573;-59
2022/01/01 17:02:21;;;;;;;7.80;3.38;;;21.70;71.20;;;;;;7886400;28;20228;-58
2022/01/01 17:06:08;;;;;;;7.50;3.25;;;21.70;71.20;;;;;;7904243;28;20231;-58
2022/01/01 17:09:58;;;;;;;8.55;4.30;;;21.70;71.10;;;;;;7903170;28;20216;-59
2022/01/01 17:13:44;;;;;;;14.23;3.63;;;21.70;72.00;;;;;;7903654;28;20607;-58
2022/01/01 17:18:04;;;;;;;13.93;3.88;;;21.70;71.00;;;;;;7883647;28;20205;-59
2022/01/01 17:22:01;;;;;;;23.77;4.30;;;21.70;70.90;;;;;;7872055;28;20196;-59
2022/01/01 17:25:47;;;;;;;9.95;3.85;;;21.80;70.80;;;;;;7872013;28;20512;-59
2022/01/01 17:29:41;;;;;;;19.33;4.05;;;21.80;70.80;;;;;;7870508;28;20673;-58
2022/01/01 17:33:38;;;;;;;8.45;3.58;;;21.80;70.70;;;;;;7871560;28;20197;-59
2022/01/01 17:37:40;;;;;;;12.15;3.92;;;21.80;70.50;;;;;;7871455;28;20204;-58
2022/01/01 17:41:30;;;;;;;11.63;4.32;;;21.80;70.50;;;;;;7871406;28;20193;-60
2022/01/01 17:45:17;;;;;;;14.25;4.20;;;21.90;70.40;;;;;;7867311;28;20184;-59
2022/01/01 17:49:04;;;;;;;10.57;4.03;;;21.90;70.70;;;;;;7869852;28;20177;-59
2022/01/01 17:52:51;;;;;;;9.52;4.43;;;21.90;70.70;;;;;;7870560;28;20782;-58
2022/01/01 17:56:37;;;;;;;14.73;4.97;;;22.00;70.70;;;;;;7870549;28;20609;-59
2022/01/01 18:00:24;;;;;;;14.35;5.20;;;22.00;70.70;;;;;;7870010;28;20614;-59
2022/01/01 18:04:14;;;;;;;6.75;3.38;;;22.10;70.70;;;;;;7871170;28;20180;-58
2022/01/01 18:08:07;;;;;;;13.50;3.22;;;22.30;70.70;;;;;;7869896;28;20184;-59
2022/01/01 18:11:55;;;;;;;13.40;3.08;;;22.50;70.30;;;;;;7870407;28;20223;-58
2022/01/01 18:15:44;;;;;;;11.00;4.07;;;22.80;69.80;;;;;;7869929;28;20679;-58
2022/01/01 18:19:32;;;;;;;14.70;3.33;;;23.00;69.30;;;;;;7869457;28;20212;-58
2022/01/01 18:23:19;;;;;;;13.43;3.05;;;23.30;69.00;;;;;;7870223;28;20197;-59
2022/01/01 18:27:18;;;;;;;16.70;3.00;;;23.50;68.70;;;;;;7869932;28;20220;-58
2022/01/01 18:31:06;;;;;;;8.25;3.22;;;23.60;68.40;;;;;;7868983;28;20589;-60
2022/01/01 18:34:52;;;;;;;9.18;2.90;;;23.80;68.20;;;;;;7869797;28;20536;-59
2022/01/01 18:38:38;;;;;;;10.02;2.40;;;23.90;68.10;;;;;;7869163;28;20686;-58
2022/01/01 18:42:24;;;;;;;9.07;3.10;;;24.00;68.10;;;;;;7864173;28;20637;-60
2022/01/01 18:46:10;;;;;;;6.50;2.80;;;24.00;68.00;;;;;;7869804;28;20193;-59
2022/01/01 18:49:56;;;;;;;12.32;2.72;;;24.00;68.10;;;;;;7868861;28;20199;-59
2022/01/01 18:53:52;;;;;;;11.48;3.40;;;24.10;68.30;;;;;;7879852;28;20295;-58
2022/01/01 18:57:42;;;;;;;9.73;3.03;;;24.10;68.50;;;;;;7879778;28;20204;-58
2022/01/01 19:01:31;;;;;;;10.95;2.80;;;24.10;68.70;;;;;;7884059;28;20264;-58
2022/01/01 19:05:20;;;;;;;11.90;2.97;;;24.10;68.90;;;;;;7885165;28;20169;-57
2022/01/01 19:09:24;;;;;;;15.43;3.92;;;24.10;69.10;;;;;;7883453;28;20204;-58
2022/01/01 19:13:21;;;;;;;13.80;3.42;;;24.10;69.20;;;;;;7882898;28;20708;-57
2022/01/01 19:17:07;;;;;;;11.80;2.80;;;24.10;69.40;;;;;;7881904;28;20203;-55
2022/01/01 19:20:54;;;;;;;10.15;3.20;;;24.10;69.40;;;;;;7883480;28;20193;-56
2022/01/01 19:24:41;;;;;;;11.02;2.85;;;24.00;69.70;;;;;;7882091;28;20219;-57
2022/01/01 19:28:29;;;;;;;13.32;3.40;;;24.00;69.80;;;;;;7843575;28;20193;-58
2022/01/01 19:32:19;;;;;;;8.30;3.13;;;23.90;70.00;;;;;;7837590;28;20205;-57
2022/01/01 19:36:05;;;;;;;14.77;4.07;;;23.80;70.20;;;;;;7837562;28;20209;-58
2022/01/01 19:39:54;;;;;;;20.15;3.38;;;23.80;70.20;;;;;;7836402;28;20174;-59
2022/01/01 19:44:12;;;;;;;12.05;3.72;;;23.80;70.10;;;;;;7837256;28;20213;-59
2022/01/01 19:48:00;;;;;;;9.75;3.90;;;23.70;70.10;;;;;;7850852;28;20185;-59
2022/01/01 19:51:46;;;;;;;7.30;3.53;;;23.70;70.10;;;;;;7899472;28;20215;-57
2022/01/01 19:55:36;;;;;;;9.38;3.22;;;23.60;70.20;;;;;;7903814;28;20646;-58
2022/01/01 19:59:23;;;;;;;24.67;4.35;;;23.60;70.50;;;;;;7905174;28;20735;-59